Time;durP1;ratioP1;P1;durP2;ratioP2;P2;SDS_P1;SDS_P2;PMS_P1;PMS_P2;Temp;Humidity;BMP_temperature;BMP_pressure;BME280_temperature;BME280_humidity;BME280_pressure;Samples;Min_cycle;Max_cycle;Signal;HPM_P1;HPM_P2
2023/10/28 00:00:17;;;;;;;17.58;6.70;;;;;;;9.17;100.00;99407.44;5051483;28;20029;-78
2023/10/28 00:02:43;;;;;;;16.77;6.45;;;;;;;9.18;100.00;99401.22;5050417;28;20403;-79
2023/10/28 00:05:09;;;;;;;16.00;6.60;;;;;;;9.19;100.00;99405.50;5050703;28;20024;-79
2023/10/28 00:07:35;;;;;;;17.23;6.65;;;;;;;9.20;100.00;99404.53;5032536;28;20504;-79
2023/10/28 00:10:07;;;;;;;16.48;6.50;;;;;;;9.22;100.00;99411.31;5039588;28;20075;-79
2023/10/28 00:12:33;;;;;;;20.17;6.67;;;;;;;9.22;100.00;99408.69;5040361;28;20025;-79
2023/10/28 00:14:59;;;;;;;18.50;6.35;;;;;;;9.24;100.00;99406.75;5052007;28;20032;-80
2023/10/28 00:17:25;;;;;;;15.52;6.47;;;;;;;9.26;100.00;99410.06;5052297;28;20025;-79
2023/10/28 00:19:50;;;;;;;16.83;6.20;;;;;;;9.28;100.00;99408.13;5031909;28;20728;-80
2023/10/28 00:22:17;;;;;;;15.18;6.10;;;;;;;9.29;100.00;99409.78;5032131;28;20087;-80
2023/10/28 00:24:42;;;;;;;20.05;6.75;;;;;;;9.30;100.00;99403.56;5032726;28;20525;-80
2023/10/28 00:27:09;;;;;;;14.40;6.35;;;;;;;9.32;100.00;99398.19;5048057;28;20037;-80
2023/10/28 00:29:34;;;;;;;15.93;5.47;;;;;;;9.35;100.00;99403.97;5049120;28;20017;-80
2023/10/28 00:32:00;;;;;;;18.27;6.35;;;;;;;9.36;100.00;99408.25;5032554;28;20402;-79
2023/10/28 00:34:26;;;;;;;19.38;5.95;;;;;;;9.38;100.00;99401.06;5050360;28;20032;-79
2023/10/28 00:36:52;;;;;;;17.65;6.22;;;;;;;9.40;100.00;99407.00;5048974;28;20402;-80
2023/10/28 00:39:18;;;;;;;16.92;5.22;;;;;;;9.42;100.00;99402.44;5050106;28;20059;-80
2023/10/28 00:41:44;;;;;;;14.95;5.72;;;;;;;9.42;100.00;99399.81;5050271;28;20056;-79
2023/10/28 00:44:09;;;;;;;12.77;4.80;;;;;;;9.43;100.00;99401.47;5031090;28;20055;-80
2023/10/28 00:46:35;;;;;;;19.83;5.60;;;;;;;9.46;100.00;99407.38;5048994;28;20836;-79
2023/10/28 00:49:00;;;;;;;16.58;5.28;;;;;;;9.49;100.00;99407.09;5049381;28;20043;-80
2023/10/28 00:51:27;;;;;;;17.30;5.45;;;;;;;9.50;100.00;99414.00;5048660;28;20635;-79
2023/10/28 00:53:52;;;;;;;14.82;4.90;;;;;;;9.51;100.00;99410.41;5049761;28;20032;-79
2023/10/28 00:56:19;;;;;;;11.90;4.45;;;;;;;9.52;100.00;99410.28;5050283;28;20516;-79
2023/10/28 00:58:46;;;;;;;15.15;4.53;;;;;;;9.54;100.00;99407.50;5049032;28;20027;-79
2023/10/28 01:01:13;;;;;;;11.13;4.03;;;;;;;9.55;100.00;99411.78;5049125;28;20049;-79
2023/10/28 01:03:40;;;;;;;12.70;4.20;;;;;;;9.57;100.00;99396.72;5048281;28;20470;-80
2023/10/28 01:06:09;;;;;;;12.82;4.07;;;;;;;9.58;100.00;99399.19;5048153;28;20055;-79
2023/10/28 01:08:35;;;;;;;12.10;4.18;;;;;;;9.60;100.00;99406.94;5049626;28;20028;-80
2023/10/28 01:11:03;;;;;;;11.85;4.28;;;;;;;9.60;100.00;99414.81;5064204;28;20025;-79
2023/10/28 01:13:30;;;;;;;10.50;3.58;;;;;;;9.61;100.00;99416.50;5049688;28;20020;-80
2023/10/28 01:15:55;;;;;;;10.07;3.67;;;;;;;9.61;100.00;99404.19;5050208;28;20033;-81
2023/10/28 01:18:21;;;;;;;9.93;3.47;;;;;;;9.63;100.00;99406.69;5049901;28;20025;-80
2023/10/28 01:20:47;;;;;;;10.18;3.40;;;;;;;9.65;100.00;99404.72;5031233;28;20033;-80
2023/10/28 01:23:12;;;;;;;9.20;3.33;;;;;;;9.63;100.00;99406.69;5050301;28;20033;-80
2023/10/28 01:25:37;;;;;;;12.60;3.67;;;;;;;9.64;100.00;99403.06;5049632;28;20032;-79
2023/10/28 01:28:03;;;;;;;9.60;3.47;;;;;;;9.64;100.00;99401.28;5049475;28;20078;-79
2023/10/28 01:30:28;;;;;;;10.38;3.60;;;;;;;9.63;100.00;99406.69;5030928;28;20099;-80
2023/10/28 01:32:54;;;;;;;8.77;2.90;;;;;;;9.65;100.00;99399.47;5050466;28;20045;-79
2023/10/28 01:35:19;;;;;;;8.60;3.35;;;;;;;9.65;100.00;99402.94;5048805;28;20043;-80
2023/10/28 01:37:44;;;;;;;7.75;3.08;;;;;;;9.68;100.00;99399.19;5046554;28;20552;-80
2023/10/28 01:40:13;;;;;;;9.65;3.15;;;;;;;9.68;100.00;99409.69;5048229;28;20027;-80
2023/10/28 01:42:41;;;;;;;10.32;3.38;;;;;;;9.68;100.00;99420.19;5048968;28;20057;-81
2023/10/28 01:45:09;;;;;;;8.90;3.08;;;;;;;9.66;100.00;99407.22;5046571;28;20116;-81
2023/10/28 01:47:35;;;;;;;8.10;3.00;;;;;;;9.68;100.00;99409.69;5031679;28;20025;-81
2023/10/28 01:50:00;;;;;;;7.78;2.90;;;;;;;9.68;100.00;99412.31;5028356;28;20107;-81
2023/10/28 01:52:25;;;;;;;6.80;2.75;;;;;;;9.69;100.00;99408.72;5047220;28;20068;-80
2023/10/28 01:54:51;;;;;;;5.97;2.35;;;;;;;9.68;100.00;99404.44;5048205;28;20074;-80
2023/10/28 01:57:17;;;;;;;8.27;2.50;;;;;;;9.68;100.00;99405.28;5048720;28;20080;-80
2023/10/28 01:59:43;;;;;;;9.65;2.85;;;;;;;9.67;100.00;99398.38;5046772;28;20108;-80
2023/10/28 02:02:08;;;;;;;6.82;2.83;;;;;;;9.68;100.00;99399.19;5028725;28;20053;-79
2023/10/28 02:04:34;;;;;;;10.18;2.50;;;;;;;9.67;100.00;99398.38;5043099;28;20025;-80
2023/10/28 02:07:00;;;;;;;9.45;2.58;;;;;;;9.65;100.00;99396.84;5028836;28;20116;-81
2023/10/28 02:09:28;;;;;;;6.57;2.42;;;;;;;9.65;100.00;99397.69;5046872;28;20528;-79
2023/10/28 02:11:54;;;;;;;6.82;2.22;;;;;;;9.67;100.00;99387.03;5048831;28;20056;-80
2023/10/28 02:14:20;;;;;;;6.75;2.25;;;;;;;9.64;100.00;99392.56;5065013;28;20538;-80
2023/10/28 02:16:45;;;;;;;6.72;2.42;;;;;;;9.64;100.00;99387.31;5063122;28;20229;-80
2023/10/28 02:19:11;;;;;;;4.82;2.30;;;;;;;9.63;100.00;99390.91;5047462;28;20124;-81
2023/10/28 02:21:36;;;;;;;6.35;2.17;;;;;;;9.64;100.00;99392.56;5046870;28;20029;-80
2023/10/28 02:24:04;;;;;;;5.88;2.50;;;;;;;9.63;100.00;99397.00;5049410;28;20036;-80
2023/10/28 02:26:30;;;;;;;5.30;2.17;;;;;;;9.62;100.00;99394.53;5048920;28;20028;-80
2023/10/28 02:28:55;;;;;;;6.05;2.33;;;;;;;9.62;100.00;99399.78;5048630;28;20482;-81
2023/10/28 02:31:21;;;;;;;7.85;2.33;;;;;;;9.62;100.00;99394.53;5031582;28;20504;-79
2023/10/28 02:33:46;;;;;;;6.07;2.30;;;;;;;9.61;100.00;99398.13;5048673;28;20044;-80
2023/10/28 02:36:12;;;;;;;10.10;2.53;;;;;;;9.60;100.00;99396.44;5047965;28;20422;-80
2023/10/28 02:38:38;;;;;;;5.85;2.33;;;;;;;9.60;100.00;99388.56;5030096;28;20395;-80
2023/10/28 02:41:07;;;;;;;6.60;2.50;;;;;;;9.58;100.00;99393.13;5028936;28;20028;-80
2023/10/28 02:43:35;;;;;;;10.27;2.80;;;;;;;9.56;100.00;99403.78;5045215;28;20035;-80
2023/10/28 02:46:01;;;;;;;5.60;2.58;;;;;;;9.57;100.00;99404.59;5045567;28;20478;-80
2023/10/28 02:48:27;;;;;;;5.25;2.35;;;;;;;9.53;100.00;99403.22;5030145;28;20063;-79
2023/10/28 02:50:53;;;;;;;5.68;2.20;;;;;;;9.52;100.00;99398.94;5047884;28;20035;-80
2023/10/28 02:53:19;;;;;;;11.50;2.30;;;;;;;9.52;100.00;99401.56;5048070;28;20025;-80
2023/10/28 02:55:44;;;;;;;5.72;2.00;;;;;;;9.50;100.00;99406.13;5046494;28;20036;-80
2023/10/28 02:58:10;;;;;;;6.38;2.50;;;;;;;9.50;100.00;99406.97;5046197;28;20032;-79
2023/10/28 03:00:35;;;;;;;4.65;2.33;;;;;;;9.48;100.00;99408.91;5048152;28;20028;-79
2023/10/28 03:03:02;;;;;;;4.43;2.40;;;;;;;9.49;100.00;99412.34;5043642;28;20053;-81
2023/10/28 03:05:29;;;;;;;6.40;3.10;;;;;;;9.48;100.00;99403.66;5033444;28;20028;-81
2023/10/28 03:07:55;;;;;;;6.05;3.08;;;;;;;9.48;100.00;99408.06;5051069;28;20078;-78
2023/10/28 03:10:20;;;;;;;7.60;3.90;;;;;;;9.46;100.00;99410.84;5052482;28;20530;-78
2023/10/28 03:12:47;;;;;;;7.72;3.83;;;;;;;9.46;100.00;99410.03;5052590;28;20175;-80
2023/10/28 03:15:12;;;;;;;7.30;3.40;;;;;;;9.43;100.00;99406.72;5051987;28;20154;-81
2023/10/28 03:17:39;;;;;;;6.90;3.80;;;;;;;9.42;100.00;99406.84;5043480;28;20129;-80
2023/10/28 03:20:06;;;;;;;4.53;3.15;;;;;;;9.37;100.00;99407.28;5049108;28;20031;-80
2023/10/28 03:22:31;;;;;;;6.53;3.38;;;;;;;9.37;100.00;99407.28;5018994;28;20025;-81
2023/10/28 03:24:57;;;;;;;7.20;3.35;;;;;;;9.33;100.00;99405.91;5051826;28;20025;-79
2023/10/28 03:27:22;;;;;;;5.18;2.72;;;;;;;9.30;100.00;99408.81;5051644;28;20029;-81
2023/10/28 03:29:49;;;;;;;6.68;3.00;;;;;;;9.27;100.00;99406.47;5034411;28;20021;-78
2023/10/28 03:32:16;;;;;;;5.65;3.00;;;;;;;9.24;100.00;99412.00;5051916;28;20084;-79
2023/10/28 03:34:41;;;;;;;6.10;2.95;;;;;;;9.25;100.00;99404.97;5047819;28;20060;-79
2023/10/28 03:37:06;;;;;;;5.55;2.90;;;;;;;9.21;100.00;99401.78;5031135;28;20036;-79
2023/10/28 03:39:32;;;;;;;4.70;2.63;;;;;;;9.19;100.00;99406.31;5049290;28;20025;-79
2023/10/28 03:41:57;;;;;;;5.38;2.90;;;;;;;9.17;100.00;99400.38;5052594;28;20023;-78
2023/10/28 03:44:23;;;;;;;7.03;2.92;;;;;;;9.16;100.00;99403.97;5051394;28;20032;-79
2023/10/28 03:46:49;;;;;;;7.82;3.03;;;;;;;9.16;100.00;99403.16;5051117;28;20103;-79
2023/10/28 03:49:14;;;;;;;7.13;2.80;;;;;;;9.17;100.00;99403.00;5051705;28;20478;-79
2023/10/28 03:51:40;;;;;;;7.00;2.90;;;;;;;9.15;100.00;99402.31;5051456;28;20035;-79
2023/10/28 03:54:06;;;;;;;6.40;2.78;;;;;;;9.16;100.00;99400.53;5047914;28;20079;-79
2023/10/28 03:56:34;;;;;;;7.68;3.03;;;;;;;9.16;100.00;99403.16;5047841;28;20033;-79
2023/10/28 03:59:00;;;;;;;6.47;3.10;;;;;;;9.15;100.00;99402.31;5030665;28;20025;-80
2023/10/28 04:01:25;;;;;;;6.55;2.78;;;;;;;9.14;100.00;99394.59;5036418;28;20044;-79
2023/10/28 04:03:50;;;;;;;6.00;2.85;;;;;;;9.15;100.00;99396.25;5031407;28;20794;-79
2023/10/28 04:06:16;;;;;;;6.55;2.85;;;;;;;9.15;100.00;99402.31;5050587;28;20025;-79
2023/10/28 04:08:41;;;;;;;7.63;3.00;;;;;;;9.16;100.00;99397.91;5047890;28;20035;-79
2023/10/28 04:11:06;;;;;;;6.63;2.72;;;;;;;9.14;100.00;99400.66;5047471;28;20033;-79
2023/10/28 04:13:32;;;;;;;4.55;2.53;;;;;;;9.14;100.00;99398.03;5051795;28;20431;-79
2023/10/28 04:15:58;;;;;;;5.53;2.90;;;;;;;9.15;100.00;99391.81;5050092;28;20033;-79
2023/10/28 04:18:23;;;;;;;6.18;2.83;;;;;;;9.14;100.00;99390.16;5032483;28;20033;-79
2023/10/28 04:20:50;;;;;;;7.63;2.85;;;;;;;9.16;100.00;99393.47;5050487;28;20544;-79
2023/10/28 04:23:16;;;;;;;6.78;2.63;;;;;;;9.14;100.00;99387.53;5045184;28;20398;-80
2023/10/28 04:25:42;;;;;;;7.70;2.75;;;;;;;9.17;100.00;99387.25;5029141;28;20104;-79
2023/10/28 04:28:07;;;;;;;6.45;2.80;;;;;;;9.16;100.00;99382.16;5049794;28;20028;-79
2023/10/28 04:30:33;;;;;;;5.47;2.67;;;;;;;9.18;100.00;99378.44;5050244;28;20025;-79
2023/10/28 04:32:58;;;;;;;6.53;2.70;;;;;;;9.17;100.00;99376.78;5051160;28;20055;-79
2023/10/28 04:35:23;;;;;;;6.53;2.85;;;;;;;9.18;100.00;99381.06;5051757;28;20048;-79
2023/10/28 04:37:49;;;;;;;6.07;2.90;;;;;;;9.19;100.00;99380.06;5061903;28;20035;-80
2023/10/28 04:40:14;;;;;;;10.50;2.78;;;;;;;9.21;100.00;99375.53;5049636;28;20079;-79
2023/10/28 04:42:40;;;;;;;6.32;2.72;;;;;;;9.21;100.00;99380.78;5051067;28;20099;-80
2023/10/28 04:45:06;;;;;;;6.28;2.78;;;;;;;9.21;100.00;99379.97;5051317;28;20025;-79
2023/10/28 04:47:32;;;;;;;5.63;2.58;;;;;;;9.23;100.00;99376.22;5049781;28;20662;-79
2023/10/28 04:49:58;;;;;;;4.15;2.13;;;;;;;9.23;100.00;99373.59;5033684;28;20525;-79
2023/10/28 04:52:23;;;;;;;5.38;2.80;;;;;;;9.23;100.00;99375.41;5050051;28;20116;-79
2023/10/28 04:54:49;;;;;;;6.22;2.30;;;;;;;9.25;100.00;99376.09;5048990;28;20588;-79
2023/10/28 04:57:14;;;;;;;8.60;2.40;;;;;;;9.25;100.00;99370.84;5048615;28;20567;-79
2023/10/28 04:59:40;;;;;;;7.75;2.50;;;;;;;9.26;100.00;99369.88;5030856;28;20025;-80
2023/10/28 05:02:06;;;;;;;6.13;2.22;;;;;;;9.25;100.00;99366.41;5048943;28;20554;-79
2023/10/28 05:04:34;;;;;;;7.72;2.50;;;;;;;9.24;100.00;99359.50;5048985;28;20082;-80
2023/10/28 05:07:04;;;;;;;7.00;2.78;;;;;;;9.25;100.00;99361.19;5049413;28;20115;-80
2023/10/28 05:09:29;;;;;;;4.60;2.17;;;;;;;9.27;100.00;99355.78;5051483;28;20032;-80
2023/10/28 05:11:58;;;;;;;7.50;2.53;;;;;;;9.27;100.00;99350.53;5062308;28;20390;-78
2023/10/28 05:14:24;;;;;;;6.63;2.28;;;;;;;9.26;100.00;99357.56;5049734;28;20032;-80
2023/10/28 05:16:51;;;;;;;8.65;2.60;;;;;;;9.26;100.00;99354.13;5049336;28;20390;-78
2023/10/28 05:19:18;;;;;;;5.00;2.15;;;;;;;9.27;100.00;99356.59;5049025;28;20252;-77
2023/10/28 05:21:44;;;;;;;9.05;2.25;;;;;;;9.28;100.00;99363.50;5030514;28;20163;-79
2023/10/28 05:24:09;;;;;;;6.38;2.38;;;;;;;9.27;100.00;99361.03;5049614;28;20108;-78
2023/10/28 05:26:35;;;;;;;9.23;2.35;;;;;;;9.28;100.00;99360.06;5048810;28;20021;-78
2023/10/28 05:29:00;;;;;;;4.30;2.10;;;;;;;9.27;100.00;99364.47;5048184;28;20146;-77
2023/10/28 05:31:26;;;;;;;6.28;2.15;;;;;;;9.28;100.00;99360.88;5050004;28;20378;-78
2023/10/28 05:33:51;;;;;;;5.65;2.10;;;;;;;9.26;100.00;99362.81;5058276;28;20111;-78
2023/10/28 05:36:16;;;;;;;5.50;2.22;;;;;;;9.26;100.00;99367.25;5049438;28;20368;-78
2023/10/28 05:38:43;;;;;;;6.43;2.35;;;;;;;9.26;100.00;99369.88;5050322;28;20028;-78
2023/10/28 05:41:09;;;;;;;6.45;2.47;;;;;;;9.27;100.00;99364.47;5048683;28;20021;-78
2023/10/28 05:43:34;;;;;;;5.07;2.20;;;;;;;9.27;100.00;99364.47;5045335;28;20048;-78
2023/10/28 05:46:00;;;;;;;5.65;1.98;;;;;;;9.27;100.00;99359.22;5022753;28;20056;-78
2023/10/28 05:48:25;;;;;;;5.63;1.90;;;;;;;9.26;100.00;99373.31;5049889;28;20028;-78
2023/10/28 05:50:52;;;;;;;7.25;2.53;;;;;;;9.26;100.00;99368.06;5047900;28;20079;-78
2023/10/28 05:53:17;;;;;;;4.65;2.15;;;;;;;9.26;100.00;99367.25;5048250;28;20029;-78
2023/10/28 05:55:43;;;;;;;9.05;2.55;;;;;;;9.26;100.00;99373.31;5046628;28;20387;-78
2023/10/28 05:58:08;;;;;;;7.03;2.20;;;;;;;9.24;100.00;99372.63;5047989;28;20071;-79
2023/10/28 06:00:34;;;;;;;6.55;2.30;;;;;;;9.22;100.00;99373.75;5031965;28;20189;-78
2023/10/28 06:02:59;;;;;;;6.82;2.30;;;;;;;9.22;100.00;99385.06;5048444;28;20041;-79
2023/10/28 06:05:25;;;;;;;7.15;2.08;;;;;;;9.22;100.00;99382.44;5048112;28;20495;-79
2023/10/28 06:07:51;;;;;;;9.40;1.83;;;;;;;9.23;100.00;99381.47;5032743;28;20035;-78
2023/10/28 06:10:16;;;;;;;8.10;2.78;;;;;;;9.26;100.00;99390.88;5048343;28;20394;-78
2023/10/28 06:12:41;;;;;;;7.22;2.30;;;;;;;9.25;100.00;99382.16;5049334;28;20086;-78
2023/10/28 06:15:08;;;;;;;9.15;2.15;;;;;;;9.27;100.00;99384.66;5048384;28;20052;-78
2023/10/28 06:17:35;;;;;;;7.20;2.22;;;;;;;9.27;100.00;99380.22;5048867;28;20044;-78
2023/10/28 06:20:00;;;;;;;9.13;2.15;;;;;;;9.27;100.00;99389.91;5049725;28;20025;-78
2023/10/28 06:22:25;;;;;;;8.70;2.40;;;;;;;9.32;100.00;99390.31;5049466;28;20471;-77
2023/10/28 06:24:51;;;;;;;8.02;2.58;;;;;;;9.35;100.00;99390.84;5048538;28;20028;-77
2023/10/28 06:27:16;;;;;;;7.47;2.67;;;;;;;9.36;100.00;99389.88;5048701;28;20451;-78
2023/10/28 06:29:43;;;;;;;9.65;2.65;;;;;;;9.39;100.00;99396.63;5049267;28;20021;-78
2023/10/28 06:32:08;;;;;;;9.43;2.58;;;;;;;9.39;100.00;99400.09;5048465;28;20021;-78
2023/10/28 06:34:34;;;;;;;7.20;2.30;;;;;;;9.43;100.00;99398.00;5048080;28;20039;-78
2023/10/28 06:37:02;;;;;;;7.95;2.42;;;;;;;9.43;100.00;99398.84;5014813;28;20032;-77
2023/10/28 06:39:27;;;;;;;7.40;2.15;;;;;;;9.47;100.00;99395.91;5048462;28;20112;-78
2023/10/28 06:41:53;;;;;;;10.68;2.60;;;;;;;9.47;100.00;99390.66;5047321;28;20480;-78
2023/10/28 06:44:20;;;;;;;7.65;2.47;;;;;;;9.48;100.00;99397.56;5048126;28;20855;-78
2023/10/28 06:46:45;;;;;;;9.23;2.38;;;;;;;9.50;100.00;99385.13;5047908;28;20033;-78
2023/10/28 06:49:11;;;;;;;11.60;2.67;;;;;;;9.51;100.00;99397.28;5049106;28;20386;-78
2023/10/28 06:51:36;;;;;;;7.53;2.75;;;;;;;9.52;100.00;99396.31;5048065;28;20482;-79
2023/10/28 06:54:02;;;;;;;8.15;2.70;;;;;;;9.52;100.00;99391.91;5047828;28;20028;-78
2023/10/28 06:56:28;;;;;;;7.80;2.53;;;;;;;9.53;100.00;99400.59;5047219;28;20033;-79
2023/10/28 06:58:54;;;;;;;11.70;2.53;;;;;;;9.55;100.00;99396.03;5047938;28;20024;-79
2023/10/28 07:01:19;;;;;;;6.45;2.13;;;;;;;9.54;100.00;99402.25;5049677;28;20056;-79
2023/10/28 07:03:45;;;;;;;8.30;2.55;;;;;;;9.57;100.00;99399.34;5048429;28;20030;-79
2023/10/28 07:06:14;;;;;;;6.85;2.13;;;;;;;9.56;100.00;99398.50;5047852;28;20390;-79
2023/10/28 07:08:43;;;;;;;10.73;2.53;;;;;;;9.59;100.00;99402.66;5048267;28;20116;-79
2023/10/28 07:11:10;;;;;;;10.38;2.75;;;;;;;9.63;100.00;99401.44;5047766;28;20044;-79
2023/10/28 07:13:36;;;;;;;5.68;2.30;;;;;;;9.65;100.00;99399.47;5046438;28;20025;-76
2023/10/28 07:16:03;;;;;;;8.20;2.20;;;;;;;9.68;100.00;99409.69;5049183;28;20033;-77
2023/10/28 07:18:29;;;;;;;7.32;1.95;;;;;;;9.67;100.00;99397.53;5048289;28;20033;-77
2023/10/28 07:20:55;;;;;;;7.30;2.20;;;;;;;9.71;100.00;99401.53;5047335;28;20017;-77
2023/10/28 07:23:20;;;;;;;9.32;2.10;;;;;;;9.72;100.00;99403.19;5046645;28;20035;-78
2023/10/28 07:25:46;;;;;;;4.25;2.00;;;;;;;9.77;100.00;99408.00;5047613;28;20071;-76
2023/10/28 07:28:13;;;;;;;10.73;2.40;;;;;;;9.79;100.00;99411.31;5048472;28;20082;-76
2023/10/28 07:30:50;;;;;;;5.75;1.95;;;;;;;9.81;100.00;99410.19;5046580;28;20028;-76
2023/10/28 07:33:15;;;;;;;9.93;2.10;;;;;;;9.83;100.00;99416.13;5048399;28;20109;-76
2023/10/28 07:35:44;;;;;;;6.55;2.15;;;;;;;9.88;100.00;99416.53;5046291;28;20487;-77
2023/10/28 07:38:10;;;;;;;8.20;2.28;;;;;;;9.90;100.00;99419.84;5047378;28;20033;-77
2023/10/28 07:40:35;;;;;;;8.13;2.42;;;;;;;9.94;100.00;99420.38;5048340;28;20024;-77
2023/10/28 07:43:01;;;;;;;7.32;2.10;;;;;;;10.00;100.00;99430.31;5030622;28;20036;-77
2023/10/28 07:45:26;;;;;;;8.82;2.17;;;;;;;10.04;100.00;99427.28;5043022;28;20495;-78
2023/10/28 07:47:51;;;;;;;5.30;1.90;;;;;;;10.05;100.00;99423.66;5042947;28;20052;-79
2023/10/28 07:50:17;;;;;;;5.63;2.35;;;;;;;10.12;100.00;99433.59;5045310;28;20112;-79
2023/10/28 07:52:42;;;;;;;7.45;2.63;;;;;;;10.16;100.00;99429.69;5046755;28;20038;-79
2023/10/28 07:55:08;;;;;;;8.18;2.13;;;;;;;10.18;100.00;99439.09;5030947;28;20116;-79
2023/10/28 07:57:33;;;;;;;9.55;2.30;;;;;;;10.22;100.00;99434.41;5031493;28;20100;-79
2023/10/28 08:00:05;;;;;;;8.48;2.55;;;;;;;10.25;100.00;99445.44;5048956;28;20044;-79
2023/10/28 08:02:30;;;;;;;7.80;2.20;;;;;;;10.34;100.00;99443.75;5033355;28;20088;-80
2023/10/28 08:04:57;;;;;;;8.00;2.33;;;;;;;10.40;100.00;99444.94;5052309;28;20119;-79
2023/10/28 08:07:22;;;;;;;6.00;2.15;;;;;;;10.46;100.00;99447.84;5050878;28;20021;-79
2023/10/28 08:09:48;;;;;;;9.23;2.75;;;;;;;10.52;100.00;99451.69;5051260;28;20386;-79
2023/10/28 08:12:13;;;;;;;6.53;2.10;;;;;;;10.59;100.00;99458.00;5064995;28;20121;-79
2023/10/28 08:14:39;;;;;;;7.15;2.22;;;;;;;10.59;100.00;99458.84;5070556;28;20490;-79
2023/10/28 08:17:05;;;;;;;7.10;2.20;;;;;;;10.65;100.00;99455.59;5056591;28;20025;-79
2023/10/28 08:19:30;;;;;;;6.63;2.60;;;;;;;10.73;100.00;99456.66;5052008;28;20376;-78
2023/10/28 08:21:56;;;;;;;12.82;2.50;;;;;;;10.75;100.00;99460.78;5050512;28;20058;-78
2023/10/28 08:24:22;;;;;;;7.85;2.17;;;;;;;10.79;100.00;99453.44;5051226;28;20025;-79
2023/10/28 08:26:48;;;;;;;7.65;2.13;;;;;;;10.82;100.00;99454.00;5052002;28;20029;-78
2023/10/28 08:29:14;;;;;;;9.32;2.20;;;;;;;10.85;100.00;99464.22;5033828;28;20037;-78
2023/10/28 08:31:40;;;;;;;9.63;2.20;;;;;;;10.87;100.00;99464.06;5051389;28;20108;-77
2023/10/28 08:34:06;;;;;;;8.75;2.40;;;;;;;10.88;100.00;99469.19;5045543;28;20431;-78
2023/10/28 08:36:35;;;;;;;10.48;2.20;;;;;;;10.89;100.00;99468.19;5051558;28;20471;-78
2023/10/28 08:39:00;;;;;;;8.90;2.33;;;;;;;10.98;100.00;99469.09;5047341;28;20029;-78
2023/10/28 08:41:25;;;;;;;7.90;2.20;;;;;;;11.05;100.00;99462.25;5051799;28;20013;-78
2023/10/28 08:43:51;;;;;;;11.18;2.53;;;;;;;11.07;100.00;99478.72;5051873;28;20039;-77
2023/10/28 08:46:17;;;;;;;11.90;2.47;;;;;;;11.15;100.00;99470.06;5049595;28;20368;-78
2023/10/28 08:48:43;;;;;;;7.00;2.38;;;;;;;11.16;100.00;99474.34;5051544;28;20028;-79
2023/10/28 08:51:10;;;;;;;10.35;2.50;;;;;;;11.22;100.00;99477.25;5051079;28;20078;-79
2023/10/28 08:53:36;;;;;;;11.63;2.20;;;;;;;11.25;100.00;99476.94;5050606;28;20100;-78
2023/10/28 08:56:02;;;;;;;10.63;2.53;;;;;;;11.27;100.00;99489.94;5049938;28;20428;-79
2023/10/28 08:58:28;;;;;;;7.28;2.22;;;;;;;11.31;100.00;99480.75;5048553;28;20031;-78
2023/10/28 09:01:01;;;;;;;9.80;2.60;;;;;;;11.37;100.00;99489.84;5049559;28;20029;-79
2023/10/28 09:03:28;;;;;;;12.77;2.97;;;;;;;11.37;100.00;99490.69;5049919;28;20486;-79
2023/10/28 09:05:54;;;;;;;8.40;2.33;;;;;;;11.42;100.00;99493.69;5032270;28;20032;-80
2023/10/28 09:08:25;;;;;;;8.43;2.35;;;;;;;11.48;100.00;99492.25;5050225;28;20513;-79
2023/10/28 09:10:51;;;;;;;8.82;2.47;;;;;;;11.54;100.00;99486.38;5049766;28;20060;-78
2023/10/28 09:13:16;;;;;;;10.45;2.47;;;;;;;11.67;100.00;99484.19;5049121;28;20063;-79
2023/10/28 09:15:42;;;;;;;9.75;2.13;;;;;;;11.79;100.00;99485.59;5032511;28;20087;-79
2023/10/28 09:18:08;;;;;;;8.38;2.50;;;;;;;11.95;100.00;99490.13;5051774;28;20457;-79
2023/10/28 09:20:37;;;;;;;8.35;2.30;;;;;;;12.10;100.00;99493.03;5046394;28;20025;-78
2023/10/28 09:23:03;;;;;;;9.40;2.40;;;;;;;12.27;100.00;99491.31;5047862;28;20227;-79
2023/10/28 09:25:28;;;;;;;8.65;2.13;;;;;;;12.31;100.00;99490.84;5050814;28;20032;-79
2023/10/28 09:27:54;;;;;;;5.18;2.08;;;;;;;12.41;100.00;99491.56;5049099;28;20115;-79
2023/10/28 09:30:19;;;;;;;7.05;1.88;;;;;;;12.59;100.00;99498.53;5049606;28;20060;-79
2023/10/28 09:32:45;;;;;;;7.75;2.38;;;;;;;12.65;100.00;99498.72;5049700;28;20029;-79
2023/10/28 09:35:11;;;;;;;8.30;2.20;;;;;;;12.69;100.00;99493.94;5041344;28;20545;-80
2023/10/28 09:37:38;;;;;;;7.05;2.08;;;;;;;12.61;100.00;99492.13;5049676;28;20025;-78
2023/10/28 09:40:10;;;;;;;6.38;2.13;;;;;;;12.52;100.00;99501.00;5050346;28;20023;-79
2023/10/28 09:42:38;;;;;;;10.25;2.67;;;;;;;12.48;100.00;99497.84;5030070;28;20028;-78
2023/10/28 09:45:06;;;;;;;11.60;2.38;;;;;;;12.45;100.00;99503.44;5032244;28;20398;-79
2023/10/28 09:47:53;;;;;;;9.50;2.20;;;;;;;12.49;100.00;99499.50;5047288;28;20493;-77
2023/10/28 09:50:30;;;;;;;7.65;2.22;;;;;;;12.47;100.00;99501.47;5031762;28;20360;-78
2023/10/28 09:52:57;;;;;;;7.72;1.80;;;;;;;12.46;100.00;99491.91;5050259;28;20029;-78
2023/10/28 09:55:27;;;;;;;5.25;1.90;;;;;;;12.44;100.00;99496.53;5049812;28;20025;-77
2023/10/28 09:58:04;;;;;;;5.15;1.77;;;;;;;12.38;100.00;99491.84;5050166;28;20036;-77
2023/10/28 10:00:30;;;;;;;11.15;2.40;;;;;;;12.34;100.00;99501.06;5033332;28;20127;-77
2023/10/28 10:03:20;;;;;;;7.93;1.90;;;;;;;12.35;100.00;99497.44;5049497;28;20095;-79
2023/10/28 10:05:47;;;;;;;9.25;2.10;;;;;;;12.34;100.00;99500.25;5049951;28;20483;-78
2023/10/28 10:08:21;;;;;;;5.95;1.90;;;;;;;12.41;100.00;99502.13;5032535;28;20367;-78
2023/10/28 10:10:48;;;;;;;5.30;1.75;;;;;;;12.49;100.00;99503.97;5048465;28;20039;-77
2023/10/28 10:13:15;;;;;;;8.30;2.15;;;;;;;12.57;100.00;99506.63;5048419;28;20124;-77
2023/10/28 10:15:57;;;;;;;7.45;2.00;;;;;;;12.62;100.00;99511.41;5049045;28;20036;-78
2023/10/28 10:18:43;;;;;;;6.95;2.28;;;;;;;12.68;100.00;99513.41;5032288;28;20040;-79
2023/10/28 10:21:14;;;;;;;8.10;2.22;;;;;;;12.72;100.00;99525.31;5047094;28;20556;-78
2023/10/28 10:23:41;;;;;;;6.40;1.90;;;;;;;12.74;100.00;99521.50;5049161;28;20154;-78
2023/10/28 10:26:06;;;;;;;5.43;1.70;;;;;;;12.76;100.00;99524.81;5031829;28;20113;-78
2023/10/28 10:28:32;;;;;;;7.93;1.90;;;;;;;12.76;100.00;99524.00;5048670;28;20470;-78
2023/10/28 10:31:08;;;;;;;5.55;2.10;;;;;;;12.75;100.00;99523.16;5048597;28;20060;-79
2023/10/28 10:33:34;;;;;;;8.10;1.80;;;;;;;12.80;100.00;99517.41;5037172;28;20171;-79
2023/10/28 10:36:08;;;;;;;8.63;2.00;;;;;;;12.79;100.00;99515.75;5056898;28;20550;-78
2023/10/28 10:38:33;;;;;;;8.55;2.00;;;;;;;12.79;100.00;99516.56;5030681;28;20087;-80
2023/10/28 10:40:59;;;;;;;8.30;2.22;;;;;;;12.77;100.00;99520.38;5048822;28;20037;-78
2023/10/28 10:43:29;;;;;;;7.10;1.95;;;;;;;12.74;100.00;99523.31;5047951;28;20075;-78
2023/10/28 10:45:56;;;;;;;10.32;2.47;;;;;;;12.75;100.00;99523.16;5030826;28;20029;-78
2023/10/28 10:48:21;;;;;;;7.55;2.28;;;;;;;12.72;100.00;99520.84;5048651;28;20035;-78
2023/10/28 10:50:47;;;;;;;6.78;1.80;;;;;;;12.71;100.00;99513.91;5048717;28;20037;-78
2023/10/28 10:53:12;;;;;;;10.68;2.30;;;;;;;12.75;100.00;99514.41;5046312;28;20458;-78
2023/10/28 10:55:40;;;;;;;7.45;2.20;;;;;;;12.84;100.00;99502.94;5048862;28;20479;-79
2023/10/28 10:58:05;;;;;;;9.75;2.47;;;;;;;12.93;100.00;99512.50;5049168;28;20025;-79
2023/10/28 11:00:32;;;;;;;10.27;2.20;;;;;;;13.03;100.00;99507.91;5030450;28;20021;-80
2023/10/28 11:02:59;;;;;;;9.02;2.70;;;;;;;13.12;98.83;99506.09;5047648;28;20131;-79
2023/10/28 11:05:30;;;;;;;10.27;2.30;;;;;;;13.22;99.39;99513.94;5047741;28;20044;-80
2023/10/28 11:07:56;;;;;;;8.43;2.47;;;;;;;13.30;98.50;99503.38;5047873;28;20021;-80
2023/10/28 11:10:22;;;;;;;9.50;2.50;;;;;;;13.36;97.35;99500.91;5047725;28;20029;-80
2023/10/28 11:12:49;;;;;;;8.02;2.13;;;;;;;13.45;98.17;99491.16;5047329;28;20021;-80
2023/10/28 11:15:15;;;;;;;9.70;2.10;;;;;;;13.58;100.00;99490.63;5048325;28;20102;-80
2023/10/28 11:17:41;;;;;;;9.77;2.83;;;;;;;13.62;95.43;99487.53;5048387;28;20490;-79
2023/10/28 11:20:09;;;;;;;8.80;2.40;;;;;;;13.69;97.38;99491.16;5047516;28;20040;-79
2023/10/28 11:22:35;;;;;;;11.48;2.65;;;;;;;13.75;94.22;99500.22;5049687;28;20028;-79
2023/10/28 11:25:04;;;;;;;10.20;2.85;;;;;;;13.79;95.57;99499.72;5048219;28;20029;-79